This is the latest recevied weather packets stored in our database for station/object W1RCY. If no packets are shown the sender has not sent any weather packets the latest 10 day(s).
| Time | Temp. | Humidity | Pressure | Rain* | Wind** | Luminosity | Snow |
|---|---|---|---|---|---|---|---|
| 1777978769 | 12.78° C | 73% | 1006.9 hPa | 0 mm | - | 122 W/m² | - |
| 1777978465 | 12.22° C | 74% | 1007.2 hPa | 0 mm | - | 104 W/m² | - |
| 1777978161 | 11.11° C | 77% | 1006.9 hPa | 0 mm | - | 90 W/m² | - |
| 1777977859 | 10.56° C | 78% | 1007.2 hPa | 0 mm | - | 72 W/m² | - |
| 1777977555 | 10.56° C | 78% | 1007.1 hPa | 0 mm | - | 35 W/m² | - |
| 1777977253 | 10.56° C | 77% | 1007.1 hPa | 0 mm | - | 34 W/m² | - |
| 1777976949 | 10.56° C | 77% | 1007.2 hPa | 0 mm | - | 34 W/m² | - |
| 1777976647 | 10.56° C | 79% | 1007.1 hPa | 0 mm | - | 34 W/m² | - |
| 1777976343 | 10° C | 80% | 1007.3 hPa | 0 mm | - | 30 W/m² | - |
| 1777976037 | 9.44° C | 80% | 1007.1 hPa | 0 mm | - | 25 W/m² | - |
| 1777975734 | 9.44° C | 80% | 1007.2 hPa | 0 mm | - | 21 W/m² | - |
| 1777975430 | 9.44° C | 80% | 1007 hPa | 0 mm | - | 15 W/m² | - |
| 1777975126 | 10° C | 79% | 1007 hPa | 0 mm | - | 10 W/m² | - |
| 1777974824 | 10° C | 79% | 1007.2 hPa | 0 mm | - | 6 W/m² | - |
| 1777974519 | 10° C | 78% | 1007.1 hPa | 0 mm | - | 6 W/m² | - |
| 1777974217 | 10.56° C | 76% | 1007.3 hPa | 0 mm | - | 4 W/m² | - |
| 1777973912 | 10.56° C | 75% | 1007.2 hPa | 0 mm | - | 2 W/m² | - |
| 1777973610 | 11.11° C | 74% | 1007.1 hPa | 0 mm | - | 1 W/m² | - |
| 1777973307 | 11.11° C | 74% | 1007.1 hPa | 0 mm | - | 0 W/m² | - |
| 1777973005 | 11.11° C | 74% | 1007.1 hPa | 0 mm | - | 0 W/m² | - |
| 1777972702 | 11.11° C | 73% | 1007.1 hPa | 0 mm | - | 0 W/m² | - |
| 1777972400 | 11.11° C | 73% | 1007.2 hPa | 0 mm | - | 0 W/m² | - |
| 1777972098 | 11.67° C | 72% | 1006.9 hPa | 0 mm | - | 0 W/m² | - |
| 1777971796 | 11.67° C | 72% | 1007.1 hPa | 0 mm | - | 0 W/m² | - |
| 1777971493 | 11.11° C | 73% | 1007 hPa | 0 mm | - | 0 W/m² | - |
* Rain latest hour (hover to see other rain measurements)
** Current wind speed in m/s (hover to see current wind gust speed)